Hauptseite
METAR-TAF:

METAR-TAF

Flughäfen :

Jonesboro, Arkansas, Vereinigte Staaten

Breite: 35-50-14N, Länge: 090-38-35W, Höhe: 79 m

Beobachtung

Neuester Wetterbericht von vor 7 Stunden und 12 Minuten, um 23:42 UTC
Temperatur 22°C
Luftfeuchtigkeit 88%
Luftdruck

METAR: KJBR 282342Z AUTO 22/20 RMK AO2 LTG DSNT E-S RAEMM P0005 T02170200 PWINO $

Zeit: 01:54 (06:54 UTC)

Prognose

Neuester Wetterbericht von vor 1 Stunde und 34 Minuten, um 05:20 UTC
Gültige Prognose vom 29 um 06 UTC bis 30 um 06 UTC
Wind 8 kt aus West
Sichtweite: 10 km
Aufgelockert bewölkt in der Höhe von 5000 ft
Durchbrochene Bewölkung in der Höhe von 10000 ft
Ab 29 um 0700 UTC
Wind 10 kt aus West/Südwest
Sichtweite: 10 km
Himmel klar
Ab 30 um 0000 UTC
Wind 3 kt aus West/Südwest
Sichtweite: 10 km
Himmel klar

TAF: KJBR 290520Z 2906/3006 26008KT P6SM SCT050 BKN100 FM290700 25010KT P6SM SKC FM300000 24003KT P6SM SKC AMD NOT SKED

Wetterbeobachtungen und Prognosen von mehr als 4000 Flughäfen (METAR und TAF Bericht).

Die verfügbaren Stationen werden durch gelbe und rote Markierungen auf der Karte dargestellt.

Führen Sie die Maus auf sie, um den Namen der Station zu sehen.

Darauf klicken, um die Beobachtung von Wetterbeobachtungen und Prognosen zu sehen.

Um die Karte zu ändern : klicken Sie auf den grünen Tasten mit einem schwarzen Kreuz Zum Vergrößern, auf den grünen Button mit einem Gedankenstrich zu verkleinern, oder auf die grünen Pfeile für benachbarte Karten.


METAR-TAF: